Terminal Aerodrome Forecast
Issued by NWS

Home | Current Version | Previous Version | Text Only | Print | Product List | Glossary On
Versions: 1 2 3 4 5 6 7 8 9 10 11 12 13 14 15 16 17 18
000
FTUS41 KPBZ 040215 AAA
TAFAGC
TAF AMD
KAGC 040215Z 0402/0424 26005KT 3SM BR VCSH FEW017 SCT035 BKN060
      TEMPO 0403/0404 3SM TSRA OVC030CB
     FM040800 29005KT 2SM BR SKC
     FM041300 29008KT P6SM SKC
     FM041500 29009G15KT P6SM SCT050=

USA.gov is the U.S. government's official web portal to all federal, state and local government web resources and services.